Time;durP1;ratioP1;P1;durP2;ratioP2;P2;SDS_P1;SDS_P2;PMS_P1;PMS_P2;Temp;Humidity;BMP_temperature;BMP_pressure;BME280_temperature;BME280_humidity;BME280_pressure;Samples;Min_cycle;Max_cycle;Signal;HPM_P1;HPM_P2
2021/03/25 05:01:30;;;;;;;14.57;13.00;;;3.80;99.90;;;;;;5538887;22;20461;-72
2021/03/25 05:03:58;;;;;;;18.40;14.07;;;3.80;99.90;;;;;;5034847;28;20502;-72
2021/03/25 05:06:28;;;;;;;17.50;13.57;;;3.70;99.90;;;;;;5035095;28;20444;-73
2021/03/25 05:08:56;;;;;;;17.73;13.07;;;3.80;99.90;;;;;;5048281;23;20480;-68
2021/03/25 05:11:24;;;;;;;18.03;13.87;;;3.80;99.90;;;;;;5015558;28;20455;-67
2021/03/25 05:13:53;;;;;;;15.30;12.90;;;3.90;99.90;;;;;;5015771;28;20452;-67
2021/03/25 05:16:32;;;;;;;15.50;12.03;;;3.90;99.90;;;;;;5015535;28;20477;-67
2021/03/25 05:19:08;;;;;;;19.53;14.27;;;4.00;99.90;;;;;;5025700;28;20464;-68
2021/03/25 05:21:41;;;;;;;18.93;12.97;;;4.00;99.90;;;;;;5033246;28;20446;-67
2021/03/25 05:24:17;;;;;;;17.07;12.70;;;4.00;99.90;;;;;;5031000;28;20441;-67
2021/03/25 05:26:50;;;;;;;17.30;12.80;;;4.00;99.90;;;;;;5028235;28;20444;-68
2021/03/25 05:29:18;;;;;;;19.13;13.53;;;4.00;99.90;;;;;;5021036;28;20473;-68
2021/03/25 05:31:47;;;;;;;20.17;14.33;;;3.90;99.90;;;;;;5015772;28;20460;-67
2021/03/25 05:34:14;;;;;;;20.80;13.63;;;3.80;99.90;;;;;;5015665;28;20468;-67
2021/03/25 05:36:40;;;;;;;16.87;12.77;;;3.80;99.90;;;;;;5015500;28;20979;-68
2021/03/25 05:39:07;;;;;;;17.50;13.07;;;3.90;99.90;;;;;;5014953;28;20524;-67
2021/03/25 05:41:38;;;;;;;15.23;12.80;;;3.90;99.90;;;;;;5015352;28;20464;-69
2021/03/25 05:44:32;;;;;;;17.70;13.03;;;4.00;99.90;;;;;;5014958;28;20916;-67
2021/03/25 05:47:10;;;;;;;18.63;13.07;;;4.00;99.90;;;;;;5014114;28;20511;-67
2021/03/25 05:49:49;;;;;;;16.60;13.27;;;4.00;99.90;;;;;;5014155;28;20481;-67
2021/03/25 05:52:29;;;;;;;16.70;12.07;;;4.10;99.90;;;;;;5014036;28;20448;-67
2021/03/25 05:55:14;;;;;;;17.57;13.77;;;4.10;99.90;;;;;;5014016;28;20469;-67
2021/03/25 05:57:49;;;;;;;18.73;12.63;;;4.20;99.90;;;;;;5013530;28;20448;-67
2021/03/25 06:00:26;;;;;;;15.73;12.83;;;4.20;99.90;;;;;;5013559;28;20448;-67
2021/03/25 06:02:59;;;;;;;14.97;12.70;;;4.30;99.90;;;;;;5014990;28;20440;-66
2021/03/25 06:05:25;;;;;;;14.47;11.80;;;4.40;99.90;;;;;;5015031;28;20437;-66
2021/03/25 06:08:07;;;;;;;13.60;11.80;;;4.40;99.90;;;;;;5014645;28;20460;-66
2021/03/25 06:10:57;;;;;;;17.00;12.03;;;4.50;99.90;;;;;;5013961;28;20453;-67
2021/03/25 06:13:42;;;;;;;16.77;11.60;;;4.60;99.90;;;;;;5013910;28;20436;-67
2021/03/25 06:16:31;;;;;;;17.10;12.60;;;4.70;99.90;;;;;;5013860;28;20512;-66
2021/03/25 06:19:10;;;;;;;16.30;13.00;;;4.80;99.90;;;;;;5014027;28;20484;-67
2021/03/25 06:21:58;;;;;;;13.10;11.10;;;5.00;99.90;;;;;;5014637;28;20499;-66
2021/03/25 06:25:06;;;;;;;13.03;11.27;;;5.30;99.90;;;;;;5013897;28;20448;-68
2021/03/25 06:27:43;;;;;;;12.83;9.80;;;6.00;99.90;;;;;;5013684;28;20899;-70
2021/03/25 06:30:12;;;;;;;13.40;11.13;;;6.70;99.90;;;;;;5014427;28;20786;-68
2021/03/25 06:32:51;;;;;;;12.90;10.60;;;7.20;99.90;;;;;;5013597;28;20456;-67
2021/03/25 06:35:22;;;;;;;12.53;11.20;;;7.70;99.90;;;;;;5013600;28;20465;-68
2021/03/25 06:37:55;;;;;;;11.80;10.50;;;8.40;99.90;;;;;;5013738;28;20448;-67
2021/03/25 06:40:24;;;;;;;11.70;9.77;;;8.90;99.90;;;;;;5013747;28;20444;-67
2021/03/25 06:42:56;;;;;;;12.40;11.17;;;9.30;99.90;;;;;;5013675;28;20466;-66
2021/03/25 06:45:27;;;;;;;13.30;11.23;;;9.80;99.90;;;;;;5014064;28;20437;-66
2021/03/25 06:47:58;;;;;;;13.90;10.67;;;10.40;99.90;;;;;;5013662;28;20867;-66
2021/03/25 06:50:32;;;;;;;12.93;10.80;;;10.70;99.90;;;;;;5013597;28;20432;-66
2021/03/25 06:53:11;;;;;;;13.50;11.70;;;10.90;99.90;;;;;;5013467;28;20448;-66
2021/03/25 06:55:37;;;;;;;15.13;11.70;;;11.00;99.90;;;;;;5013624;28;20461;-66
2021/03/25 06:58:08;;;;;;;11.63;10.47;;;10.90;99.90;;;;;;5013084;28;20979;-66
2021/03/25 07:00:37;;;;;;;12.57;11.30;;;10.80;99.90;;;;;;5013394;28;20441;-66
2021/03/25 07:03:06;;;;;;;12.10;11.00;;;10.60;99.90;;;;;;5013294;28;20452;-65
2021/03/25 07:05:35;;;;;;;19.40;11.80;;;10.70;99.90;;;;;;5013273;28;20475;-65
2021/03/25 07:08:05;;;;;;;11.67;10.57;;;10.70;99.90;;;;;;5012772;28;20480;-65
2021/03/25 07:10:32;;;;;;;11.67;10.47;;;10.40;99.90;;;;;;5013254;28;20468;-66
2021/03/25 07:13:05;;;;;;;11.90;10.70;;;10.50;99.90;;;;;;5014461;28;20468;-65
2021/03/25 07:15:35;;;;;;;14.27;10.60;;;10.70;99.90;;;;;;5017446;28;20777;-66
2021/03/25 07:18:04;;;;;;;13.73;9.80;;;10.90;99.90;;;;;;5016408;28;21003;-66
2021/03/25 07:20:35;;;;;;;12.33;10.60;;;11.30;99.90;;;;;;5016918;28;20479;-66
2021/03/25 07:23:08;;;;;;;12.47;10.10;;;11.50;99.90;;;;;;5016591;28;20491;-65
2021/03/25 07:25:36;;;;;;;13.07;10.70;;;11.60;99.90;;;;;;5016693;28;20437;-64
2021/03/25 07:28:10;;;;;;;9.87;9.07;;;12.00;99.90;;;;;;5016677;28;20476;-66
2021/03/25 07:30:48;;;;;;;11.10;10.00;;;12.50;99.90;;;;;;5016623;28;20503;-65
2021/03/25 07:33:16;;;;;;;11.40;10.17;;;13.10;99.90;;;;;;5016391;28;20491;-64
2021/03/25 07:35:46;;;;;;;11.40;10.10;;;13.40;99.90;;;;;;5016279;28;20507;-64
2021/03/25 07:38:30;;;;;;;12.03;9.97;;;13.90;99.90;;;;;;5015968;28;20472;-65
2021/03/25 07:41:07;;;;;;;12.93;9.50;;;14.20;99.00;;;;;;5015913;28;20935;-65
2021/03/25 07:43:53;;;;;;;10.93;10.00;;;14.60;98.50;;;;;;5016101;28;20498;-64
2021/03/25 07:46:22;;;;;;;11.03;10.00;;;14.70;97.00;;;;;;5016299;28;20437;-65
2021/03/25 07:49:06;;;;;;;11.40;10.20;;;14.70;96.10;;;;;;5016178;28;20507;-66
2021/03/25 07:51:45;;;;;;;12.67;10.20;;;15.00;95.10;;;;;;5016066;28;20926;-65
2021/03/25 07:54:15;;;;;;;20.87;10.93;;;15.40;95.30;;;;;;5017899;28;20448;-66
2021/03/25 07:56:59;;;;;;;12.20;9.23;;;15.50;92.80;;;;;;5016587;28;20854;-66
2021/03/25 07:59:36;;;;;;;11.33;10.10;;;15.00;93.40;;;;;;5015025;28;20534;-66
2021/03/25 08:02:02;;;;;;;13.10;9.63;;;15.20;94.20;;;;;;5016089;28;20467;-65
2021/03/25 08:04:30;;;;;;;11.23;9.37;;;15.50;94.10;;;;;;5015958;28;20453;-65
2021/03/25 08:07:07;;;;;;;10.87;9.77;;;16.20;92.80;;;;;;5016059;28;20444;-65
2021/03/25 08:09:45;;;;;;;10.80;9.20;;;17.00;91.20;;;;;;5015344;28;20476;-66
2021/03/25 08:12:25;;;;;;;8.93;8.13;;;17.10;87.10;;;;;;5015651;28;20437;-66
2021/03/25 08:15:03;;;;;;;10.20;9.20;;;17.20;89.00;;;;;;5015518;28;20440;-65
2021/03/25 08:17:37;;;;;;;9.37;8.47;;;17.80;84.80;;;;;;5015803;28;20851;-66
2021/03/25 08:20:14;;;;;;;8.83;8.13;;;17.90;81.60;;;;;;5015571;28;20511;-66
2021/03/25 08:23:04;;;;;;;11.33;8.60;;;17.70;81.00;;;;;;5015358;28;20444;-65
2021/03/25 08:25:44;;;;;;;10.20;9.20;;;18.50;84.40;;;;;;5015432;28;20433;-66
2021/03/25 08:28:43;;;;;;;9.93;9.03;;;19.20;90.00;;;;;;5015480;28;20530;-67
2021/03/25 08:31:28;;;;;;;10.43;9.33;;;19.70;75.60;;;;;;5015172;28;20464;-65
2021/03/25 08:34:18;;;;;;;9.73;8.47;;;19.80;72.20;;;;;;5015254;28;20436;-66
2021/03/25 08:37:00;;;;;;;9.40;8.50;;;20.00;71.70;;;;;;5008716;28;20539;-66
2021/03/25 08:39:36;;;;;;;9.43;8.43;;;20.40;69.00;;;;;;5014943;28;21025;-68
2021/03/25 08:42:10;;;;;;;10.60;8.80;;;20.10;66.70;;;;;;5014785;28;20437;-68
2021/03/25 08:44:50;;;;;;;9.93;8.93;;;19.80;67.10;;;;;;5015249;28;20436;-68
2021/03/25 08:47:21;;;;;;;15.73;9.17;;;20.10;69.70;;;;;;5015267;28;20433;-67
2021/03/25 08:49:58;;;;;;;10.53;8.50;;;20.60;66.70;;;;;;5015137;28;20477;-67
2021/03/25 08:52:27;;;;;;;13.10;8.77;;;21.00;63.80;;;;;;5015262;28;20468;-67
2021/03/25 08:55:03;;;;;;;11.53;9.13;;;20.90;62.60;;;;;;5014572;28;20904;-67
2021/03/25 08:57:32;;;;;;;9.60;8.60;;;21.40;65.50;;;;;;5015140;28;20471;-67
2021/03/25 09:00:07;;;;;;;10.83;8.20;;;22.00;60.80;;;;;;5015048;28;20526;-67
2021/03/25 09:02:38;;;;;;;10.13;8.50;;;22.10;59.00;;;;;;5015051;28;20441;-67
2021/03/25 09:05:09;;;;;;;9.50;8.47;;;21.80;59.50;;;;;;5015212;28;20441;-67
2021/03/25 09:07:37;;;;;;;13.47;8.13;;;22.00;61.70;;;;;;5014830;28;20464;-68
2021/03/25 09:10:07;;;;;;;9.00;8.10;;;21.50;59.40;;;;;;5014853;28;20448;-67
2021/03/25 09:12:33;;;;;;;10.00;8.10;;;22.00;59.60;;;;;;5014714;28;20433;-68
2021/03/25 09:15:05;;;;;;;8.27;7.47;;;22.30;59.10;;;;;;5014594;28;20457;-69
2021/03/25 09:17:37;;;;;;;9.33;8.50;;;23.10;58.30;;;;;;5014864;28;20507;-69
2021/03/25 09:20:09;;;;;;;8.40;7.70;;;23.30;58.20;;;;;;5014766;28;20446;-68
2021/03/25 09:22:40;;;;;;;8.37;7.50;;;23.50;58.50;;;;;;5014718;28;20441;-68
2021/03/25 09:25:40;;;;;;;8.67;7.80;;;22.50;58.10;;;;;;5014683;28;20437;-68
2021/03/25 09:28:11;;;;;;;8.90;8.00;;;23.50;56.70;;;;;;5014397;28;20475;-68
2021/03/25 09:30:40;;;;;;;10.37;8.20;;;23.10;58.90;;;;;;5014333;28;20440;-68
2021/03/25 09:33:36;;;;;;;8.93;8.20;;;23.10;60.20;;;;;;5014564;28;20510;-65
2021/03/25 09:36:02;;;;;;;9.13;7.90;;;22.80;56.70;;;;;;5013921;28;20461;-66
2021/03/25 09:38:31;;;;;;;9.80;8.30;;;23.20;57.80;;;;;;5014662;28;20476;-66
2021/03/25 09:41:01;;;;;;;8.40;7.60;;;24.00;58.40;;;;;;5014447;28;20965;-67
2021/03/25 09:43:45;;;;;;;7.90;7.20;;;24.50;55.80;;;;;;5014491;28;20511;-65
2021/03/25 09:46:40;;;;;;;8.60;7.80;;;24.60;55.50;;;;;;5014514;28;20433;-66
2021/03/25 09:49:31;;;;;;;10.23;8.10;;;24.90;56.50;;;;;;5014303;28;20465;-64
2021/03/25 09:52:25;;;;;;;9.20;8.40;;;25.50;54.50;;;;;;5014326;28;20443;-64
2021/03/25 09:55:22;;;;;;;7.83;7.07;;;25.70;53.40;;;;;;5014853;28;20451;-69
2021/03/25 09:57:51;;;;;;;12.73;7.53;;;24.40;54.50;;;;;;5014092;28;20428;-66
2021/03/25 10:00:53;;;;;;;9.00;8.13;;;24.30;56.70;;;;;;5014320;28;20453;-67
2021/03/25 10:04:04;;;;;;;9.93;6.97;;;24.70;56.30;;;;;;5014639;28;20463;-67
2021/03/25 10:06:56;;;;;;;9.20;7.60;;;24.20;56.90;;;;;;5019683;28;20452;-68
2021/03/25 10:09:50;;;;;;;7.97;7.27;;;23.10;57.30;;;;;;5020497;28;20508;-67
2021/03/25 10:12:48;;;;;;;18.00;8.20;;;24.40;54.50;;;;;;5019682;28;20453;-67
2021/03/25 10:15:51;;;;;;;10.50;8.17;;;25.60;52.70;;;;;;5015353;28;20452;-68
2021/03/25 10:18:57;;;;;;;9.70;8.70;;;26.30;49.00;;;;;;5016370;28;20496;-66
2021/03/25 10:22:02;;;;;;;11.30;8.80;;;26.30;52.20;;;;;;5016468;28;20778;-66
2021/03/25 10:24:53;;;;;;;14.33;8.33;;;26.30;52.10;;;;;;5014902;28;20804;-66
2021/03/25 10:27:39;;;;;;;12.07;8.90;;;27.10;50.50;;;;;;5015001;28;20432;-68
2021/03/25 10:30:21;;;;;;;15.37;9.20;;;27.60;49.80;;;;;;5014142;28;20846;-68
2021/03/25 10:32:47;;;;;;;10.37;9.10;;;27.20;47.20;;;;;;5015073;28;20433;-68
2021/03/25 10:35:21;;;;;;;13.43;9.43;;;26.60;47.50;;;;;;5013711;28;20453;-69
2021/03/25 10:37:50;;;;;;;9.70;8.67;;;26.40;48.60;;;;;;5013499;28;20826;-69
2021/03/25 10:40:20;;;;;;;10.40;8.10;;;26.30;49.20;;;;;;5013879;28;20457;-69
2021/03/25 10:42:59;;;;;;;11.50;9.27;;;26.00;50.50;;;;;;5013711;28;20512;-69
2021/03/25 10:45:45;;;;;;;15.47;9.27;;;25.90;48.40;;;;;;5013382;28;20487;-68
2021/03/25 10:48:19;;;;;;;14.10;9.63;;;25.70;50.50;;;;;;5017116;28;20528;-69
2021/03/25 10:50:49;;;;;;;12.20;9.60;;;25.30;52.50;;;;;;5017475;28;20778;-66
2021/03/25 10:53:18;;;;;;;10.50;9.40;;;25.40;50.20;;;;;;5017135;28;20457;-66
2021/03/25 10:55:47;;;;;;;9.73;8.63;;;25.20;48.60;;;;;;5017249;28;20475;-65
2021/03/25 10:58:23;;;;;;;12.10;10.37;;;24.90;50.70;;;;;;5017032;28;20982;-65
2021/03/25 11:00:59;;;;;;;10.87;9.40;;;25.30;50.50;;;;;;5017507;28;20436;-65
2021/03/25 11:03:29;;;;;;;10.97;9.87;;;25.20;51.00;;;;;;5017433;28;20508;-68
2021/03/25 11:05:57;;;;;;;13.37;10.33;;;24.80;49.20;;;;;;5017078;28;20926;-69
2021/03/25 11:08:39;;;;;;;9.83;8.80;;;24.60;51.90;;;;;;5017324;28;20485;-65
2021/03/25 11:11:13;;;;;;;10.37;9.20;;;24.90;51.30;;;;;;5017206;28;20461;-66
2021/03/25 11:13:40;;;;;;;11.57;8.40;;;24.70;52.60;;;;;;5017183;28;20437;-67
2021/03/25 11:16:16;;;;;;;11.00;8.60;;;24.40;54.30;;;;;;5017368;28;20963;-67
2021/03/25 11:18:46;;;;;;;9.77;8.87;;;24.40;51.70;;;;;;5016421;28;20483;-66
2021/03/25 11:21:18;;;;;;;9.30;7.83;;;24.20;52.70;;;;;;5016478;28;20507;-66
2021/03/25 11:23:44;;;;;;;9.60;7.90;;;24.30;53.50;;;;;;5016653;28;20511;-67
2021/03/25 11:26:16;;;;;;;10.40;8.33;;;24.20;53.60;;;;;;5016752;28;20452;-66
2021/03/25 11:28:42;;;;;;;10.93;8.77;;;24.00;51.30;;;;;;5016627;28;20562;-68
2021/03/25 11:31:21;;;;;;;10.77;9.60;;;24.20;53.40;;;;;;5016863;28;20452;-66
2021/03/25 11:33:49;;;;;;;10.10;8.87;;;23.70;56.40;;;;;;5016882;28;20453;-67
2021/03/25 11:36:32;;;;;;;11.00;9.43;;;23.20;54.50;;;;;;5016306;28;21007;-64
2021/03/25 11:39:16;;;;;;;9.67;8.77;;;22.60;55.80;;;;;;5016772;28;20488;-64
2021/03/25 11:41:43;;;;;;;11.70;10.30;;;22.20;56.20;;;;;;5016771;28;20445;-65
2021/03/25 11:44:11;;;;;;;11.33;8.97;;;22.00;55.60;;;;;;5016954;28;20491;-65
2021/03/25 11:46:40;;;;;;;12.33;9.20;;;21.80;55.50;;;;;;5016633;28;20456;-65
2021/03/25 11:49:12;;;;;;;14.33;9.03;;;21.70;57.90;;;;;;5016261;28;20531;-65
2021/03/25 11:51:41;;;;;;;12.30;9.03;;;21.50;54.30;;;;;;5017083;28;20448;-65
2021/03/25 11:54:22;;;;;;;11.30;8.67;;;21.50;55.80;;;;;;5016227;28;20477;-65
2021/03/25 11:56:52;;;;;;;11.10;8.97;;;21.20;57.20;;;;;;5016544;28;20551;-66
2021/03/25 11:59:25;;;;;;;10.93;8.10;;;21.20;56.50;;;;;;5015229;28;20481;-66
2021/03/25 12:02:15;;;;;;;10.03;8.90;;;21.20;58.40;;;;;;5016884;28;20444;-64
2021/03/25 12:04:42;;;;;;;10.47;8.90;;;21.50;57.80;;;;;;5023764;28;20433;-64
2021/03/25 12:07:16;;;;;;;12.90;10.50;;;21.50;55.60;;;;;;5022715;28;20453;-64
2021/03/25 12:09:58;;;;;;;9.60;7.87;;;21.20;54.80;;;;;;5018707;28;20542;-65
2021/03/25 12:12:26;;;;;;;10.90;8.10;;;21.70;57.90;;;;;;5015783;28;20445;-64
2021/03/25 12:14:52;;;;;;;10.13;8.33;;;21.50;56.80;;;;;;5016031;28;20457;-64
2021/03/25 12:17:18;;;;;;;9.93;8.93;;;21.60;59.60;;;;;;5015706;28;20473;-64
2021/03/25 12:19:45;;;;;;;9.97;8.60;;;22.00;57.90;;;;;;5015801;28;20477;-65
2021/03/25 12:22:12;;;;;;;9.70;7.77;;;22.00;57.60;;;;;;5015518;28;20511;-65
2021/03/25 12:24:38;;;;;;;9.40;8.27;;;22.00;61.70;;;;;;5015629;28;20507;-66
2021/03/25 12:27:05;;;;;;;8.43;7.63;;;22.10;60.30;;;;;;5015340;28;20940;-65
2021/03/25 12:29:32;;;;;;;7.87;6.93;;;22.60;58.80;;;;;;5015290;28;20480;-65
2021/03/25 12:31:58;;;;;;;9.40;8.50;;;22.80;56.50;;;;;;5015419;28;20453;-66
2021/03/25 12:34:24;;;;;;;8.40;6.43;;;22.50;54.30;;;;;;5015254;28;20904;-66
2021/03/25 12:36:51;;;;;;;9.27;7.93;;;22.40;55.00;;;;;;5015336;28;20480;-67
2021/03/25 12:39:19;;;;;;;9.80;7.80;;;22.70;57.30;;;;;;5015283;28;20480;-67
2021/03/25 12:41:46;;;;;;;8.93;7.70;;;22.60;56.40;;;;;;5015244;28;20453;-68
2021/03/25 12:44:15;;;;;;;9.43;8.43;;;22.40;56.50;;;;;;5015326;28;20869;-67
2021/03/25 12:46:42;;;;;;;7.70;7.00;;;22.00;54.90;;;;;;5015379;28;20460;-64
2021/03/25 12:49:09;;;;;;;8.60;7.80;;;22.10;56.60;;;;;;5015195;28;20531;-65
2021/03/25 12:51:36;;;;;;;8.20;6.57;;;22.00;56.70;;;;;;5014907;28;20503;-67
2021/03/25 12:54:02;;;;;;;9.03;7.70;;;22.10;54.90;;;;;;5014858;28;20453;-67
2021/03/25 12:56:31;;;;;;;9.27;7.57;;;21.60;55.40;;;;;;5014797;28;20468;-67
2021/03/25 12:59:01;;;;;;;9.70;7.70;;;21.50;56.60;;;;;;5014718;28;20523;-68
2021/03/25 13:01:32;;;;;;;10.87;7.73;;;21.30;55.60;;;;;;5014498;28;20942;-68
2021/03/25 13:03:59;;;;;;;9.00;7.07;;;21.10;56.80;;;;;;5014997;28;20441;-67
2021/03/25 13:06:25;;;;;;;7.63;6.70;;;20.90;55.10;;;;;;5015085;28;20453;-68
2021/03/25 13:08:52;;;;;;;8.40;7.20;;;20.70;56.90;;;;;;5014467;28;20481;-68
2021/03/25 13:11:20;;;;;;;14.60;7.80;;;20.50;57.60;;;;;;5013827;28;20476;-65
2021/03/25 13:13:47;;;;;;;11.23;7.60;;;20.50;57.00;;;;;;5017715;28;20453;-65
2021/03/25 13:16:14;;;;;;;7.80;7.00;;;20.20;57.80;;;;;;5017772;28;20477;-65
2021/03/25 13:18:40;;;;;;;10.97;8.17;;;20.00;58.10;;;;;;5015927;28;20476;-65
2021/03/25 13:21:08;;;;;;;9.60;6.93;;;20.10;58.40;;;;;;5014767;28;20492;-64
2021/03/25 13:23:35;;;;;;;8.77;7.73;;;20.20;58.70;;;;;;5014461;28;20460;-70
2021/03/25 13:26:02;;;;;;;7.80;6.87;;;20.20;57.90;;;;;;5014537;28;20453;-69
2021/03/25 13:28:30;;;;;;;8.97;8.13;;;20.30;59.10;;;;;;5015140;28;20477;-69
2021/03/25 13:30:56;;;;;;;8.10;6.80;;;20.50;58.10;;;;;;5014473;28;20792;-69
2021/03/25 13:33:23;;;;;;;9.60;7.70;;;20.70;57.80;;;;;;5014524;28;20950;-69
2021/03/25 13:35:50;;;;;;;10.07;8.03;;;21.10;57.20;;;;;;5014110;28;20483;-69
2021/03/25 13:38:17;;;;;;;9.27;6.83;;;21.20;57.30;;;;;;5014245;28;20472;-70
2021/03/25 13:40:44;;;;;;;8.50;7.37;;;21.30;57.80;;;;;;5014081;28;20457;-68
2021/03/25 13:43:14;;;;;;;8.70;7.50;;;21.30;57.10;;;;;;5013880;28;20962;-67
2021/03/25 13:45:40;;;;;;;12.80;7.57;;;21.40;57.40;;;;;;5014530;28;20811;-70
2021/03/25 13:48:07;;;;;;;7.93;7.23;;;21.70;56.50;;;;;;5014332;28;20484;-69
2021/03/25 13:50:34;;;;;;;9.90;7.43;;;21.50;56.40;;;;;;5014094;28;20457;-69
2021/03/25 13:53:01;;;;;;;13.90;7.63;;;21.50;57.40;;;;;;5014305;28;20460;-67
2021/03/25 13:55:31;;;;;;;9.20;7.80;;;21.40;57.40;;;;;;5013946;28;20464;-69
2021/03/25 13:57:57;;;;;;;10.87;8.50;;;21.20;55.10;;;;;;5013474;28;20856;-67
2021/03/25 14:00:25;;;;;;;10.83;8.00;;;21.20;56.50;;;;;;5013799;28;20449;-68
2021/03/25 14:02:52;;;;;;;13.37;7.47;;;21.00;55.40;;;;;;5013942;28;20452;-69
2021/03/25 14:05:19;;;;;;;8.80;7.37;;;21.00;58.30;;;;;;5014018;28;20951;-68
2021/03/25 14:07:45;;;;;;;11.17;8.80;;;20.90;57.40;;;;;;5013866;28;20448;-67
2021/03/25 14:10:13;;;;;;;9.03;8.17;;;20.60;56.40;;;;;;5013823;28;20453;-68
2021/03/25 14:12:41;;;;;;;9.03;7.93;;;20.30;57.10;;;;;;5014409;28;20528;-68
2021/03/25 14:15:10;;;;;;;7.87;7.07;;;20.50;57.80;;;;;;5013507;28;20458;-68
2021/03/25 14:17:36;;;;;;;10.33;7.13;;;20.50;57.40;;;;;;5013959;28;20477;-68
2021/03/25 14:20:04;;;;;;;10.40;8.70;;;20.50;60.00;;;;;;5014398;28;20472;-68
2021/03/25 14:22:30;;;;;;;8.90;7.90;;;20.50;59.50;;;;;;5016656;28;20494;-68
2021/03/25 14:24:56;;;;;;;9.03;8.13;;;20.60;57.20;;;;;;5018261;28;20944;-68
2021/03/25 14:27:22;;;;;;;10.37;7.97;;;21.00;58.20;;;;;;5017741;28;20453;-67
2021/03/25 14:29:49;;;;;;;11.20;7.40;;;20.90;57.80;;;;;;5017518;28;20472;-67
2021/03/25 14:32:16;;;;;;;11.97;8.23;;;20.90;57.70;;;;;;5018034;28;20807;-68
2021/03/25 14:34:42;;;;;;;11.10;9.10;;;20.80;56.80;;;;;;5018102;28;20460;-67
2021/03/25 14:37:08;;;;;;;10.03;8.97;;;20.60;57.50;;;;;;5018147;28;20472;-68
2021/03/25 14:39:34;;;;;;;9.87;8.87;;;20.70;58.00;;;;;;5017525;28;20476;-67
2021/03/25 14:42:00;;;;;;;9.80;8.80;;;20.70;57.10;;;;;;5017171;28;20819;-67
2021/03/25 14:44:29;;;;;;;11.10;9.43;;;20.50;57.40;;;;;;5017616;28;20460;-67
2021/03/25 14:46:56;;;;;;;11.57;9.33;;;20.10;57.40;;;;;;5017357;28;20475;-67
2021/03/25 14:49:22;;;;;;;11.73;8.87;;;19.90;57.90;;;;;;5017679;28;20479;-67
2021/03/25 14:51:48;;;;;;;10.23;9.03;;;19.70;59.30;;;;;;5017435;28;20540;-67
2021/03/25 14:54:15;;;;;;;11.37;9.17;;;19.70;59.70;;;;;;5017309;28;20828;-65
2021/03/25 14:56:41;;;;;;;12.27;9.70;;;19.90;60.60;;;;;;5016916;28;20503;-66
2021/03/25 14:59:07;;;;;;;14.03;9.23;;;19.90;60.40;;;;;;5016975;28;20480;-65
2021/03/25 15:01:33;;;;;;;13.53;10.00;;;19.90;57.60;;;;;;5017095;28;20526;-64
2021/03/25 15:04:00;;;;;;;12.77;9.70;;;19.80;58.50;;;;;;5016982;28;20453;-67
2021/03/25 15:06:26;;;;;;;10.03;9.00;;;19.70;58.80;;;;;;5016625;28;20813;-66
2021/03/25 15:08:53;;;;;;;12.03;8.63;;;19.90;60.20;;;;;;5016549;28;20488;-66
2021/03/25 15:11:19;;;;;;;12.67;9.43;;;19.80;59.30;;;;;;5016696;28;20453;-66
2021/03/25 15:13:45;;;;;;;14.03;9.87;;;19.80;59.30;;;;;;5016663;28;20457;-65
2021/03/25 15:16:11;;;;;;;13.57;9.60;;;19.90;59.80;;;;;;5016570;28;20484;-65
2021/03/25 15:18:39;;;;;;;11.77;10.47;;;19.90;59.50;;;;;;5017791;28;20476;-66
2021/03/25 15:21:07;;;;;;;13.47;10.60;;;19.70;59.50;;;;;;5016841;28;20595;-65
2021/03/25 15:23:35;;;;;;;11.60;10.43;;;19.40;59.60;;;;;;5016087;28;20457;-64
2021/03/25 15:26:05;;;;;;;11.60;9.73;;;19.40;61.50;;;;;;5016588;28;20457;-66
2021/03/25 15:28:31;;;;;;;10.93;9.83;;;19.50;60.80;;;;;;5016641;28;20501;-66
2021/03/25 15:30:59;;;;;;;16.83;10.63;;;19.60;60.60;;;;;;5016558;28;20445;-65
2021/03/25 15:33:26;;;;;;;12.27;10.37;;;19.50;61.20;;;;;;5015837;28;20456;-65
2021/03/25 15:35:55;;;;;;;12.23;10.93;;;19.30;61.80;;;;;;5016448;28;20855;-65
2021/03/25 15:38:24;;;;;;;14.63;9.70;;;19.40;60.90;;;;;;5016260;28;20492;-64
2021/03/25 15:43:26;;;;;;;12.00;10.00;;;19.10;63.60;;;;;;5036749;22;20236;-63
2021/03/25 15:45:54;;;;;;;11.80;9.50;;;19.10;64.90;;;;;;5042562;28;20444;-64
2021/03/25 15:48:21;;;;;;;10.23;8.70;;;19.10;63.30;;;;;;5036838;28;20497;-65
2021/03/25 15:50:49;;;;;;;9.87;8.90;;;19.10;64.10;;;;;;5036304;28;20546;-63
2021/03/25 15:53:17;;;;;;;11.90;9.20;;;19.20;63.80;;;;;;5035968;28;20523;-62
2021/03/25 15:55:45;;;;;;;9.80;8.80;;;19.20;63.40;;;;;;5035915;28;20560;-64
2021/03/25 15:58:13;;;;;;;9.33;8.20;;;19.10;62.00;;;;;;5060544;23;20890;-63
2021/03/25 16:00:39;;;;;;;8.40;7.50;;;19.10;60.90;;;;;;5038369;28;20447;-63
2021/03/25 16:03:07;;;;;;;10.40;7.50;;;19.20;60.90;;;;;;5038578;28;20456;-64
2021/03/25 16:05:33;;;;;;;13.37;8.10;;;19.10;61.90;;;;;;5037664;28;20452;-61
2021/03/25 16:07:59;;;;;;;7.80;7.00;;;19.00;60.10;;;;;;5040300;28;20471;-61
2021/03/25 16:10:26;;;;;;;7.80;7.07;;;19.00;60.90;;;;;;5046648;28;20462;-60
2021/03/25 16:12:54;;;;;;;8.80;7.90;;;18.80;59.50;;;;;;5045313;28;20452;-60
2021/03/25 16:15:22;;;;;;;8.43;6.90;;;18.60;59.70;;;;;;5038745;28;20945;-62
2021/03/25 16:17:49;;;;;;;10.02;8.85;;;18.50;61.30;;;;;;5037388;28;20460;-63
2021/03/25 16:20:17;;;;;;;8.90;8.10;;;18.30;59.70;;;;;;5036831;28;20232;-63
2021/03/25 16:22:43;;;;;;;11.37;8.87;;;18.30;60.90;;;;;;5036362;28;20837;-64
2021/03/25 16:25:11;;;;;;;9.90;8.90;;;18.10;61.90;;;;;;5036643;28;20479;-65
2021/03/25 16:27:38;;;;;;;12.43;9.37;;;17.90;61.50;;;;;;5036321;28;21014;-63
2021/03/25 16:30:07;;;;;;;12.50;9.50;;;17.70;62.00;;;;;;5036788;28;20452;-64
2021/03/25 16:32:34;;;;;;;9.73;8.63;;;17.50;62.30;;;;;;5036274;28;20467;-63
2021/03/25 16:35:00;;;;;;;12.77;11.13;;;17.40;63.50;;;;;;5035808;28;20452;-63
2021/03/25 16:37:26;;;;;;;13.80;9.30;;;17.20;63.70;;;;;;5035785;28;20480;-65
2021/03/25 16:39:53;;;;;;;12.90;9.90;;;17.10;65.40;;;;;;5035558;28;20459;-62
2021/03/25 16:42:19;;;;;;;13.50;11.10;;;17.00;66.00;;;;;;5035194;28;20452;-63
2021/03/25 16:44:45;;;;;;;11.47;10.27;;;16.90;66.60;;;;;;5036081;28;20463;-63
2021/03/25 16:47:12;;;;;;;14.30;11.13;;;16.80;66.90;;;;;;5035998;28;20472;-62
2021/03/25 16:49:39;;;;;;;11.13;9.20;;;16.80;66.80;;;;;;5035843;28;20456;-63
2021/03/25 16:52:07;;;;;;;11.20;10.03;;;16.70;67.70;;;;;;5036660;28;20452;-63
2021/03/25 16:54:34;;;;;;;13.80;10.50;;;16.60;67.60;;;;;;5035486;28;20880;-63
2021/03/25 16:57:00;;;;;;;12.50;11.20;;;16.60;68.90;;;;;;5034511;28;20484;-62
2021/03/25 16:59:27;;;;;;;12.33;11.03;;;16.50;68.70;;;;;;5034940;28;20950;-62
2021/03/25 17:01:53;;;;;;;11.73;10.27;;;16.40;69.00;;;;;;5035076;28;20547;-63
2021/03/25 17:04:20;;;;;;;12.50;11.10;;;16.40;69.70;;;;;;5036118;28;20506;-64
2021/03/25 17:06:47;;;;;;;14.03;12.07;;;16.30;70.30;;;;;;5035628;28;20468;-63
2021/03/25 17:09:13;;;;;;;15.10;10.43;;;16.20;70.50;;;;;;5036268;28;20513;-64
2021/03/25 17:11:40;;;;;;;15.90;11.80;;;16.10;71.70;;;;;;5035346;28;20454;-62
2021/03/25 17:14:06;;;;;;;14.00;10.40;;;15.90;71.80;;;;;;5035424;28;20456;-63
2021/03/25 17:16:32;;;;;;;13.77;11.93;;;15.90;72.30;;;;;;5035345;28;20553;-64
2021/03/25 17:18:58;;;;;;;12.43;10.70;;;15.90;72.30;;;;;;5037021;28;20946;-64
2021/03/25 17:21:25;;;;;;;13.70;10.67;;;15.90;73.70;;;;;;5037659;28;20480;-62
2021/03/25 17:23:52;;;;;;;14.63;11.33;;;15.90;73.80;;;;;;5035181;28;20834;-62
2021/03/25 17:26:19;;;;;;;12.70;11.13;;;15.80;76.10;;;;;;5034595;28;20448;-62
2021/03/25 17:28:48;;;;;;;11.80;10.70;;;15.70;73.50;;;;;;5034181;28;20938;-62
2021/03/25 17:31:16;;;;;;;14.27;11.57;;;15.70;74.00;;;;;;5036128;28;20857;-64
2021/03/25 17:33:44;;;;;;;11.63;10.53;;;15.60;74.80;;;;;;5035702;28;20819;-62
2021/03/25 17:36:11;;;;;;;14.33;10.93;;;15.60;77.40;;;;;;5035725;28;20553;-64
2021/03/25 17:38:38;;;;;;;16.67;12.20;;;15.50;75.70;;;;;;5036267;28;20487;-63
2021/03/25 17:41:06;;;;;;;13.10;11.47;;;15.40;75.50;;;;;;5036775;28;20447;-63
2021/03/25 17:43:32;;;;;;;12.20;10.90;;;15.40;76.20;;;;;;5036607;28;20452;-62
2021/03/25 17:46:00;;;;;;;12.87;10.57;;;15.20;76.30;;;;;;5034784;28;20961;-63
2021/03/25 17:48:28;;;;;;;12.97;11.43;;;15.10;76.50;;;;;;5035581;28;20478;-64
2021/03/25 17:50:57;;;;;;;13.10;11.13;;;15.00;77.20;;;;;;5035382;28;20452;-63
2021/03/25 17:53:24;;;;;;;11.73;10.53;;;15.00;78.20;;;;;;5035115;28;20459;-64
2021/03/25 17:55:52;;;;;;;15.87;11.80;;;15.00;79.20;;;;;;5036343;28;20482;-64
2021/03/25 17:58:19;;;;;;;15.33;11.70;;;14.90;78.90;;;;;;5036691;28;20472;-64
2021/03/25 18:00:47;;;;;;;13.27;11.90;;;14.90;79.10;;;;;;5034864;28;20451;-63
2021/03/25 18:03:17;;;;;;;14.60;11.23;;;14.80;79.90;;;;;;5034899;28;20452;-63
2021/03/25 18:05:46;;;;;;;17.40;11.97;;;14.70;80.80;;;;;;5034805;28;20435;-62